sensor_id;sensor_type;location;lat;lon;timestamp;P1;durP1;ratioP1;P2;durP2;ratioP2
69754;SDS011;57023;52.218;5.158;2022-11-23T00:00:21;34.90;;;15.65;;
69754;SDS011;57023;52.218;5.158;2022-11-23T00:02:46;31.70;;;15.05;;
69754;SDS011;57023;52.218;5.158;2022-11-23T00:05:11;31.70;;;14.13;;
69754;SDS011;57023;52.218;5.158;2022-11-23T00:07:36;30.10;;;15.18;;
69754;SDS011;57023;52.218;5.158;2022-11-23T00:10:02;26.10;;;14.88;;
69754;SDS011;57023;52.218;5.158;2022-11-23T00:12:27;33.72;;;15.13;;
69754;SDS011;57023;52.218;5.158;2022-11-23T00:14:52;32.17;;;14.18;;
69754;SDS011;57023;52.218;5.158;2022-11-23T00:17:18;31.15;;;14.57;;
69754;SDS011;57023;52.218;5.158;2022-11-23T00:19:43;38.97;;;15.52;;
69754;SDS011;57023;52.218;5.158;2022-11-23T00:22:08;27.42;;;14.35;;
69754;SDS011;57023;52.218;5.158;2022-11-23T00:24:34;32.05;;;15.27;;
69754;SDS011;57023;52.218;5.158;2022-11-23T00:26:59;32.78;;;13.35;;
69754;SDS011;57023;52.218;5.158;2022-11-23T00:29:24;28.13;;;13.45;;
69754;SDS011;57023;52.218;5.158;2022-11-23T00:31:51;34.30;;;16.13;;
69754;SDS011;57023;52.218;5.158;2022-11-23T00:34:16;21.02;;;12.18;;
69754;SDS011;57023;52.218;5.158;2022-11-23T00:36:41;29.30;;;12.68;;
69754;SDS011;57023;52.218;5.158;2022-11-23T00:39:07;30.88;;;15.52;;
69754;SDS011;57023;52.218;5.158;2022-11-23T00:41:32;24.60;;;12.10;;
69754;SDS011;57023;52.218;5.158;2022-11-23T00:43:57;35.28;;;15.55;;
69754;SDS011;57023;52.218;5.158;2022-11-23T00:46:23;31.80;;;12.50;;
69754;SDS011;57023;52.218;5.158;2022-11-23T00:48:50;31.95;;;14.68;;
69754;SDS011;57023;52.218;5.158;2022-11-23T00:51:27;27.92;;;11.57;;
69754;SDS011;57023;52.218;5.158;2022-11-23T00:53:54;36.35;;;14.65;;
69754;SDS011;57023;52.218;5.158;2022-11-23T00:56:19;33.22;;;15.55;;
69754;SDS011;57023;52.218;5.158;2022-11-23T00:58:48;33.38;;;14.60;;
69754;SDS011;57023;52.218;5.158;2022-11-23T01:01:15;34.08;;;16.17;;
69754;SDS011;57023;52.218;5.158;2022-11-23T01:03:45;39.22;;;16.33;;
69754;SDS011;57023;52.218;5.158;2022-11-23T01:06:16;31.45;;;13.88;;
69754;SDS011;57023;52.218;5.158;2022-11-23T01:08:49;29.83;;;12.68;;
69754;SDS011;57023;52.218;5.158;2022-11-23T01:11:15;34.63;;;15.82;;
69754;SDS011;57023;52.218;5.158;2022-11-23T01:13:41;22.27;;;12.00;;
69754;SDS011;57023;52.218;5.158;2022-11-23T01:19:01;32.25;;;13.27;;
69754;SDS011;57023;52.218;5.158;2022-11-23T01:21:28;31.63;;;13.52;;
69754;SDS011;57023;52.218;5.158;2022-11-23T01:23:55;37.47;;;14.93;;
69754;SDS011;57023;52.218;5.158;2022-11-23T01:26:20;35.08;;;16.70;;
69754;SDS011;57023;52.218;5.158;2022-11-23T01:28:47;39.05;;;16.58;;
69754;SDS011;57023;52.218;5.158;2022-11-23T01:31:13;42.35;;;17.33;;
69754;SDS011;57023;52.218;5.158;2022-11-23T01:33:40;41.03;;;16.88;;
69754;SDS011;57023;52.218;5.158;2022-11-23T01:36:13;33.03;;;15.18;;
69754;SDS011;57023;52.218;5.158;2022-11-23T01:38:43;35.40;;;15.90;;
69754;SDS011;57023;52.218;5.158;2022-11-23T01:41:11;40.00;;;15.48;;
69754;SDS011;57023;52.218;5.158;2022-11-23T01:43:37;30.83;;;13.52;;
69754;SDS011;57023;52.218;5.158;2022-11-23T01:46:03;32.20;;;15.23;;
69754;SDS011;57023;52.218;5.158;2022-11-23T01:48:33;42.97;;;17.23;;
69754;SDS011;57023;52.218;5.158;2022-11-23T01:51:13;34.13;;;15.60;;
69754;SDS011;57023;52.218;5.158;2022-11-23T01:53:40;41.58;;;15.75;;
69754;SDS011;57023;52.218;5.158;2022-11-23T01:56:07;36.70;;;17.33;;
69754;SDS011;57023;52.218;5.158;2022-11-23T01:58:36;42.10;;;17.67;;
69754;SDS011;57023;52.218;5.158;2022-11-23T02:01:04;37.08;;;16.02;;
69754;SDS011;57023;52.218;5.158;2022-11-23T02:03:30;35.97;;;17.07;;
69754;SDS011;57023;52.218;5.158;2022-11-23T02:05:58;38.78;;;16.75;;
69754;SDS011;57023;52.218;5.158;2022-11-23T02:08:25;41.88;;;16.35;;
69754;SDS011;57023;52.218;5.158;2022-11-23T02:10:52;36.25;;;15.90;;
69754;SDS011;57023;52.218;5.158;2022-11-23T02:13:18;38.63;;;16.90;;
69754;SDS011;57023;52.218;5.158;2022-11-23T02:15:43;36.47;;;15.98;;
69754;SDS011;57023;52.218;5.158;2022-11-23T02:18:11;37.50;;;16.55;;
69754;SDS011;57023;52.218;5.158;2022-11-23T02:20:39;38.13;;;16.38;;
69754;SDS011;57023;52.218;5.158;2022-11-23T02:26:05;30.83;;;12.98;;
69754;SDS011;57023;52.218;5.158;2022-11-23T02:28:38;23.17;;;10.63;;
69754;SDS011;57023;52.218;5.158;2022-11-23T02:31:07;28.10;;;12.60;;
69754;SDS011;57023;52.218;5.158;2022-11-23T02:33:33;30.80;;;12.05;;
69754;SDS011;57023;52.218;5.158;2022-11-23T02:35:59;26.60;;;9.25;;
69754;SDS011;57023;52.218;5.158;2022-11-23T02:38:31;32.57;;;13.57;;
69754;SDS011;57023;52.218;5.158;2022-11-23T02:40:57;29.10;;;12.65;;
69754;SDS011;57023;52.218;5.158;2022-11-23T02:43:22;28.25;;;13.73;;
69754;SDS011;57023;52.218;5.158;2022-11-23T02:46:00;37.63;;;14.90;;
69754;SDS011;57023;52.218;5.158;2022-11-23T02:48:27;28.48;;;12.07;;
69754;SDS011;57023;52.218;5.158;2022-11-23T02:50:52;27.77;;;12.52;;
69754;SDS011;57023;52.218;5.158;2022-11-23T02:53:19;26.50;;;11.90;;
69754;SDS011;57023;52.218;5.158;2022-11-23T02:55:44;34.28;;;12.45;;
69754;SDS011;57023;52.218;5.158;2022-11-23T02:58:09;23.73;;;12.00;;
69754;SDS011;57023;52.218;5.158;2022-11-23T03:00:35;30.02;;;13.00;;
69754;SDS011;57023;52.218;5.158;2022-11-23T03:03:01;29.05;;;10.73;;
69754;SDS011;57023;52.218;5.158;2022-11-23T03:05:26;23.30;;;9.30;;
69754;SDS011;57023;52.218;5.158;2022-11-23T03:07:52;23.80;;;9.65;;
69754;SDS011;57023;52.218;5.158;2022-11-23T03:10:17;25.85;;;12.07;;
69754;SDS011;57023;52.218;5.158;2022-11-23T03:12:43;27.63;;;12.32;;
69754;SDS011;57023;52.218;5.158;2022-11-23T03:15:08;26.88;;;12.68;;
69754;SDS011;57023;52.218;5.158;2022-11-23T03:17:34;32.38;;;13.57;;
69754;SDS011;57023;52.218;5.158;2022-11-23T03:19:59;31.98;;;12.98;;
69754;SDS011;57023;52.218;5.158;2022-11-23T03:22:25;34.38;;;12.60;;
69754;SDS011;57023;52.218;5.158;2022-11-23T03:24:50;32.17;;;14.27;;
69754;SDS011;57023;52.218;5.158;2022-11-23T03:27:15;26.63;;;12.52;;
69754;SDS011;57023;52.218;5.158;2022-11-23T03:29:41;32.33;;;12.93;;
69754;SDS011;57023;52.218;5.158;2022-11-23T03:32:06;32.35;;;14.75;;
69754;SDS011;57023;52.218;5.158;2022-11-23T03:34:31;28.45;;;13.85;;
69754;SDS011;57023;52.218;5.158;2022-11-23T03:36:57;27.17;;;12.00;;
69754;SDS011;57023;52.218;5.158;2022-11-23T03:39:22;33.88;;;14.43;;
69754;SDS011;57023;52.218;5.158;2022-11-23T03:41:47;31.13;;;12.38;;
69754;SDS011;57023;52.218;5.158;2022-11-23T03:44:13;34.78;;;14.82;;
69754;SDS011;57023;52.218;5.158;2022-11-23T03:46:38;26.33;;;13.00;;
69754;SDS011;57023;52.218;5.158;2022-11-23T03:49:03;23.83;;;11.70;;
69754;SDS011;57023;52.218;5.158;2022-11-23T03:51:29;25.80;;;11.68;;
69754;SDS011;57023;52.218;5.158;2022-11-23T03:53:54;18.85;;;8.07;;
69754;SDS011;57023;52.218;5.158;2022-11-23T03:56:19;28.42;;;12.55;;
69754;SDS011;57023;52.218;5.158;2022-11-23T03:58:45;30.02;;;13.60;;
69754;SDS011;57023;52.218;5.158;2022-11-23T04:01:10;26.65;;;11.68;;
69754;SDS011;57023;52.218;5.158;2022-11-23T04:03:35;28.67;;;12.73;;
69754;SDS011;57023;52.218;5.158;2022-11-23T04:06:01;28.67;;;14.15;;
69754;SDS011;57023;52.218;5.158;2022-11-23T04:08:26;25.77;;;11.25;;
69754;SDS011;57023;52.218;5.158;2022-11-23T04:10:54;27.52;;;12.13;;
69754;SDS011;57023;52.218;5.158;2022-11-23T04:13:20;27.98;;;12.25;;
69754;SDS011;57023;52.218;5.158;2022-11-23T04:15:46;23.40;;;11.50;;
69754;SDS011;57023;52.218;5.158;2022-11-23T04:18:11;25.90;;;11.63;;
69754;SDS011;57023;52.218;5.158;2022-11-23T04:20:36;26.63;;;12.50;;
69754;SDS011;57023;52.218;5.158;2022-11-23T04:23:03;27.38;;;10.27;;
69754;SDS011;57023;52.218;5.158;2022-11-23T04:25:28;26.00;;;11.40;;
69754;SDS011;57023;52.218;5.158;2022-11-23T04:27:54;22.25;;;11.30;;
69754;SDS011;57023;52.218;5.158;2022-11-23T04:30:19;29.65;;;11.25;;
69754;SDS011;57023;52.218;5.158;2022-11-23T04:32:44;27.67;;;13.25;;
69754;SDS011;57023;52.218;5.158;2022-11-23T04:35:10;21.55;;;10.30;;
69754;SDS011;57023;52.218;5.158;2022-11-23T04:37:36;28.05;;;10.80;;
69754;SDS011;57023;52.218;5.158;2022-11-23T04:40:02;25.70;;;11.68;;
69754;SDS011;57023;52.218;5.158;2022-11-23T04:42:27;27.33;;;11.50;;
69754;SDS011;57023;52.218;5.158;2022-11-23T04:44:53;27.02;;;12.10;;
69754;SDS011;57023;52.218;5.158;2022-11-23T04:47:19;26.63;;;11.20;;
69754;SDS011;57023;52.218;5.158;2022-11-23T04:49:44;22.23;;;11.13;;
69754;SDS011;57023;52.218;5.158;2022-11-23T04:52:09;18.85;;;8.02;;
69754;SDS011;57023;52.218;5.158;2022-11-23T04:54:35;20.48;;;10.23;;
69754;SDS011;57023;52.218;5.158;2022-11-23T04:57:00;35.17;;;11.63;;
69754;SDS011;57023;52.218;5.158;2022-11-23T04:59:25;21.65;;;9.68;;
69754;SDS011;57023;52.218;5.158;2022-11-23T05:01:51;21.17;;;10.40;;
69754;SDS011;57023;52.218;5.158;2022-11-23T05:04:17;20.98;;;10.07;;
69754;SDS011;57023;52.218;5.158;2022-11-23T05:06:48;21.98;;;10.23;;
69754;SDS011;57023;52.218;5.158;2022-11-23T05:09:13;23.17;;;10.77;;
69754;SDS011;57023;52.218;5.158;2022-11-23T05:11:38;20.70;;;10.27;;
69754;SDS011;57023;52.218;5.158;2022-11-23T05:14:04;21.02;;;10.00;;
69754;SDS011;57023;52.218;5.158;2022-11-23T05:16:35;24.65;;;10.38;;
69754;SDS011;57023;52.218;5.158;2022-11-23T05:19:01;22.10;;;10.02;;
69754;SDS011;57023;52.218;5.158;2022-11-23T05:21:29;21.25;;;9.88;;
69754;SDS011;57023;52.218;5.158;2022-11-23T05:23:54;24.40;;;10.65;;
69754;SDS011;57023;52.218;5.158;2022-11-23T05:26:26;19.58;;;9.20;;
69754;SDS011;57023;52.218;5.158;2022-11-23T05:28:51;21.05;;;9.20;;
69754;SDS011;57023;52.218;5.158;2022-11-23T05:31:16;22.95;;;9.85;;
69754;SDS011;57023;52.218;5.158;2022-11-23T05:33:42;19.75;;;9.15;;
69754;SDS011;57023;52.218;5.158;2022-11-23T05:36:07;19.98;;;10.25;;
69754;SDS011;57023;52.218;5.158;2022-11-23T05:38:33;23.55;;;9.93;;
69754;SDS011;57023;52.218;5.158;2022-11-23T05:40:58;22.83;;;9.50;;
69754;SDS011;57023;52.218;5.158;2022-11-23T05:43:24;22.33;;;9.52;;
69754;SDS011;57023;52.218;5.158;2022-11-23T05:45:49;21.63;;;9.10;;
69754;SDS011;57023;52.218;5.158;2022-11-23T05:48:14;21.88;;;8.90;;
69754;SDS011;57023;52.218;5.158;2022-11-23T05:50:40;25.40;;;10.98;;
69754;SDS011;57023;52.218;5.158;2022-11-23T05:53:05;20.90;;;9.20;;
69754;SDS011;57023;52.218;5.158;2022-11-23T05:55:30;19.92;;;8.40;;
69754;SDS011;57023;52.218;5.158;2022-11-23T05:57:56;24.85;;;8.60;;
69754;SDS011;57023;52.218;5.158;2022-11-23T06:00:21;30.08;;;9.57;;
69754;SDS011;57023;52.218;5.158;2022-11-23T06:02:47;20.67;;;9.38;;
69754;SDS011;57023;52.218;5.158;2022-11-23T06:05:13;27.42;;;9.20;;
69754;SDS011;57023;52.218;5.158;2022-11-23T06:07:38;24.63;;;10.15;;
69754;SDS011;57023;52.218;5.158;2022-11-23T06:10:04;20.50;;;8.70;;
69754;SDS011;57023;52.218;5.158;2022-11-23T06:12:30;18.58;;;8.77;;
69754;SDS011;57023;52.218;5.158;2022-11-23T06:14:56;28.00;;;9.65;;
69754;SDS011;57023;52.218;5.158;2022-11-23T06:17:21;23.65;;;9.45;;
69754;SDS011;57023;52.218;5.158;2022-11-23T06:19:47;23.40;;;9.18;;
69754;SDS011;57023;52.218;5.158;2022-11-23T06:22:13;20.13;;;8.45;;
69754;SDS011;57023;52.218;5.158;2022-11-23T06:24:39;25.58;;;9.25;;
69754;SDS011;57023;52.218;5.158;2022-11-23T06:27:04;16.10;;;7.13;;
69754;SDS011;57023;52.218;5.158;2022-11-23T06:29:30;23.65;;;9.93;;
69754;SDS011;57023;52.218;5.158;2022-11-23T06:31:55;22.75;;;9.68;;
69754;SDS011;57023;52.218;5.158;2022-11-23T06:34:20;23.45;;;8.43;;
69754;SDS011;57023;52.218;5.158;2022-11-23T06:36:46;24.25;;;9.65;;
69754;SDS011;57023;52.218;5.158;2022-11-23T06:39:11;23.00;;;10.10;;
69754;SDS011;57023;52.218;5.158;2022-11-23T06:41:37;26.30;;;9.65;;
69754;SDS011;57023;52.218;5.158;2022-11-23T06:44:02;20.85;;;8.98;;
69754;SDS011;57023;52.218;5.158;2022-11-23T06:46:28;25.38;;;9.68;;
69754;SDS011;57023;52.218;5.158;2022-11-23T06:48:53;24.27;;;8.77;;
69754;SDS011;57023;52.218;5.158;2022-11-23T06:51:19;28.25;;;10.55;;
69754;SDS011;57023;52.218;5.158;2022-11-23T06:53:44;27.95;;;9.80;;
69754;SDS011;57023;52.218;5.158;2022-11-23T06:56:09;22.25;;;8.95;;
69754;SDS011;57023;52.218;5.158;2022-11-23T06:58:35;25.42;;;9.32;;
69754;SDS011;57023;52.218;5.158;2022-11-23T07:01:01;27.48;;;9.82;;
69754;SDS011;57023;52.218;5.158;2022-11-23T07:03:27;24.27;;;9.17;;
69754;SDS011;57023;52.218;5.158;2022-11-23T07:05:52;26.75;;;8.85;;
69754;SDS011;57023;52.218;5.158;2022-11-23T07:08:18;17.15;;;7.15;;
69754;SDS011;57023;52.218;5.158;2022-11-23T07:10:43;23.40;;;8.00;;
69754;SDS011;57023;52.218;5.158;2022-11-23T07:13:12;11.57;;;4.65;;
69754;SDS011;57023;52.218;5.158;2022-11-23T07:15:38;25.25;;;7.55;;
69754;SDS011;57023;52.218;5.158;2022-11-23T07:18:05;17.45;;;6.75;;
69754;SDS011;57023;52.218;5.158;2022-11-23T07:20:30;18.05;;;6.57;;
69754;SDS011;57023;52.218;5.158;2022-11-23T07:22:59;23.75;;;7.00;;
69754;SDS011;57023;52.218;5.158;2022-11-23T07:25:26;16.98;;;4.20;;
69754;SDS011;57023;52.218;5.158;2022-11-23T07:27:56;18.70;;;5.70;;
69754;SDS011;57023;52.218;5.158;2022-11-23T07:30:22;16.08;;;4.75;;
69754;SDS011;57023;52.218;5.158;2022-11-23T07:32:48;17.38;;;4.28;;
69754;SDS011;57023;52.218;5.158;2022-11-23T07:35:13;16.73;;;4.65;;
69754;SDS011;57023;52.218;5.158;2022-11-23T07:37:38;13.82;;;4.00;;
69754;SDS011;57023;52.218;5.158;2022-11-23T07:40:04;20.35;;;4.78;;
69754;SDS011;57023;52.218;5.158;2022-11-23T07:42:29;12.98;;;3.67;;
69754;SDS011;57023;52.218;5.158;2022-11-23T07:44:55;17.50;;;4.75;;
69754;SDS011;57023;52.218;5.158;2022-11-23T07:47:20;16.52;;;3.90;;
69754;SDS011;57023;52.218;5.158;2022-11-23T07:49:46;16.83;;;4.30;;
69754;SDS011;57023;52.218;5.158;2022-11-23T07:52:11;13.63;;;3.60;;
69754;SDS011;57023;52.218;5.158;2022-11-23T07:54:36;16.10;;;4.70;;
69754;SDS011;57023;52.218;5.158;2022-11-23T07:57:02;18.67;;;4.97;;
69754;SDS011;57023;52.218;5.158;2022-11-23T07:59:27;16.88;;;4.97;;
69754;SDS011;57023;52.218;5.158;2022-11-23T08:01:53;14.40;;;3.70;;
69754;SDS011;57023;52.218;5.158;2022-11-23T08:04:18;15.75;;;3.75;;
69754;SDS011;57023;52.218;5.158;2022-11-23T08:06:44;17.73;;;5.50;;
69754;SDS011;57023;52.218;5.158;2022-11-23T08:09:09;22.95;;;4.35;;
69754;SDS011;57023;52.218;5.158;2022-11-23T08:11:35;17.27;;;4.10;;
69754;SDS011;57023;52.218;5.158;2022-11-23T08:14:00;17.52;;;5.78;;
69754;SDS011;57023;52.218;5.158;2022-11-23T08:16:25;18.77;;;4.07;;
69754;SDS011;57023;52.218;5.158;2022-11-23T08:18:51;11.52;;;3.80;;
69754;SDS011;57023;52.218;5.158;2022-11-23T08:21:16;13.65;;;4.10;;
69754;SDS011;57023;52.218;5.158;2022-11-23T08:23:42;16.50;;;4.50;;
69754;SDS011;57023;52.218;5.158;2022-11-23T08:26:07;17.50;;;4.40;;
69754;SDS011;57023;52.218;5.158;2022-11-23T08:28:32;17.38;;;4.40;;
69754;SDS011;57023;52.218;5.158;2022-11-23T08:30:57;14.32;;;4.15;;
69754;SDS011;57023;52.218;5.158;2022-11-23T08:33:23;20.45;;;4.78;;
69754;SDS011;57023;52.218;5.158;2022-11-23T08:35:48;12.60;;;3.88;;
69754;SDS011;57023;52.218;5.158;2022-11-23T08:38:13;7.75;;;2.90;;
69754;SDS011;57023;52.218;5.158;2022-11-23T08:40:39;14.13;;;4.25;;
69754;SDS011;57023;52.218;5.158;2022-11-23T08:43:05;17.63;;;4.43;;
69754;SDS011;57023;52.218;5.158;2022-11-23T08:45:30;15.73;;;4.10;;
69754;SDS011;57023;52.218;5.158;2022-11-23T08:47:59;16.90;;;3.95;;
69754;SDS011;57023;52.218;5.158;2022-11-23T08:50:25;17.80;;;4.40;;
69754;SDS011;57023;52.218;5.158;2022-11-23T08:52:57;18.67;;;4.85;;
69754;SDS011;57023;52.218;5.158;2022-11-23T08:55:23;13.90;;;4.45;;
69754;SDS011;57023;52.218;5.158;2022-11-23T08:57:49;24.20;;;4.45;;
69754;SDS011;57023;52.218;5.158;2022-11-23T09:00:14;20.20;;;3.95;;
69754;SDS011;57023;52.218;5.158;2022-11-23T09:02:40;16.17;;;4.25;;
69754;SDS011;57023;52.218;5.158;2022-11-23T09:05:05;13.57;;;3.55;;
69754;SDS011;57023;52.218;5.158;2022-11-23T09:07:31;18.55;;;4.80;;
69754;SDS011;57023;52.218;5.158;2022-11-23T09:09:57;19.77;;;4.93;;
69754;SDS011;57023;52.218;5.158;2022-11-23T09:12:22;14.05;;;4.00;;
69754;SDS011;57023;52.218;5.158;2022-11-23T09:14:47;17.17;;;3.90;;
69754;SDS011;57023;52.218;5.158;2022-11-23T09:17:12;17.15;;;3.67;;
69754;SDS011;57023;52.218;5.158;2022-11-23T09:19:38;21.02;;;5.40;;
69754;SDS011;57023;52.218;5.158;2022-11-23T09:22:03;13.50;;;3.22;;
69754;SDS011;57023;52.218;5.158;2022-11-23T09:24:28;17.17;;;3.80;;
69754;SDS011;57023;52.218;5.158;2022-11-23T09:26:54;13.95;;;3.40;;
69754;SDS011;57023;52.218;5.158;2022-11-23T09:29:20;12.63;;;3.50;;
69754;SDS011;57023;52.218;5.158;2022-11-23T09:31:45;20.13;;;4.85;;
69754;SDS011;57023;52.218;5.158;2022-11-23T09:34:11;12.25;;;3.65;;
69754;SDS011;57023;52.218;5.158;2022-11-23T09:36:38;14.68;;;3.97;;
69754;SDS011;57023;52.218;5.158;2022-11-23T09:39:03;19.25;;;4.30;;
69754;SDS011;57023;52.218;5.158;2022-11-23T09:44:15;13.35;;;3.05;;
69754;SDS011;57023;52.218;5.158;2022-11-23T09:49:40;15.82;;;4.20;;
69754;SDS011;57023;52.218;5.158;2022-11-23T09:52:13;14.65;;;3.78;;
69754;SDS011;57023;52.218;5.158;2022-11-23T09:54:43;14.52;;;3.40;;
69754;SDS011;57023;52.218;5.158;2022-11-23T09:57:10;10.77;;;3.08;;
69754;SDS011;57023;52.218;5.158;2022-11-23T09:59:50;11.60;;;2.80;;
69754;SDS011;57023;52.218;5.158;2022-11-23T10:02:23;9.13;;;2.75;;
69754;SDS011;57023;52.218;5.158;2022-11-23T10:04:51;14.45;;;3.25;;
69754;SDS011;57023;52.218;5.158;2022-11-23T10:12:23;13.13;;;3.20;;
69754;SDS011;57023;52.218;5.158;2022-11-23T10:17:28;14.20;;;3.65;;
69754;SDS011;57023;52.218;5.158;2022-11-23T10:22:58;13.65;;;3.53;;
69754;SDS011;57023;52.218;5.158;2022-11-23T10:25:30;13.63;;;3.22;;
69754;SDS011;57023;52.218;5.158;2022-11-23T10:27:58;12.05;;;3.55;;
69754;SDS011;57023;52.218;5.158;2022-11-23T10:30:25;14.30;;;3.63;;
69754;SDS011;57023;52.218;5.158;2022-11-23T10:35:27;11.35;;;3.17;;
69754;SDS011;57023;52.218;5.158;2022-11-23T10:38:13;14.90;;;3.70;;
69754;SDS011;57023;52.218;5.158;2022-11-23T10:40:45;12.18;;;4.03;;
69754;SDS011;57023;52.218;5.158;2022-11-23T10:43:25;16.88;;;4.20;;
69754;SDS011;57023;52.218;5.158;2022-11-23T10:46:21;10.07;;;3.80;;
69754;SDS011;57023;52.218;5.158;2022-11-23T10:49:34;18.35;;;3.85;;
69754;SDS011;57023;52.218;5.158;2022-11-23T10:52:03;16.33;;;3.47;;
69754;SDS011;57023;52.218;5.158;2022-11-23T10:54:31;17.80;;;4.25;;
69754;SDS011;57023;52.218;5.158;2022-11-23T10:56:59;11.40;;;3.67;;
69754;SDS011;57023;52.218;5.158;2022-11-23T10:59:33;13.80;;;3.53;;
69754;SDS011;57023;52.218;5.158;2022-11-23T11:02:18;14.63;;;4.10;;
69754;SDS011;57023;52.218;5.158;2022-11-23T11:04:46;12.65;;;3.63;;
69754;SDS011;57023;52.218;5.158;2022-11-23T11:07:19;7.20;;;2.70;;
69754;SDS011;57023;52.218;5.158;2022-11-23T11:09:49;14.73;;;3.73;;
69754;SDS011;57023;52.218;5.158;2022-11-23T11:12:18;12.63;;;3.60;;
69754;SDS011;57023;52.218;5.158;2022-11-23T11:15:01;8.95;;;3.20;;
69754;SDS011;57023;52.218;5.158;2022-11-23T11:17:34;19.38;;;3.90;;
69754;SDS011;57023;52.218;5.158;2022-11-23T11:20:00;17.33;;;3.92;;
69754;SDS011;57023;52.218;5.158;2022-11-23T11:22:59;15.40;;;4.10;;
69754;SDS011;57023;52.218;5.158;2022-11-23T11:25:35;10.98;;;3.55;;
69754;SDS011;57023;52.218;5.158;2022-11-23T11:28:03;16.13;;;4.68;;
69754;SDS011;57023;52.218;5.158;2022-11-23T11:30:35;12.98;;;3.70;;
69754;SDS011;57023;52.218;5.158;2022-11-23T11:33:13;10.18;;;3.45;;
69754;SDS011;57023;52.218;5.158;2022-11-23T11:35:48;10.60;;;4.10;;
69754;SDS011;57023;52.218;5.158;2022-11-23T11:38:30;11.75;;;4.07;;
69754;SDS011;57023;52.218;5.158;2022-11-23T11:40:59;9.80;;;2.92;;
69754;SDS011;57023;52.218;5.158;2022-11-23T11:43:28;13.38;;;4.10;;
69754;SDS011;57023;52.218;5.158;2022-11-23T11:45:59;8.25;;;3.35;;
69754;SDS011;57023;52.218;5.158;2022-11-23T11:48:38;11.52;;;4.63;;
69754;SDS011;57023;52.218;5.158;2022-11-23T11:51:22;12.45;;;3.60;;
69754;SDS011;57023;52.218;5.158;2022-11-23T11:56:34;12.18;;;3.60;;
69754;SDS011;57023;52.218;5.158;2022-11-23T12:01:39;10.10;;;3.63;;
69754;SDS011;57023;52.218;5.158;2022-11-23T12:04:16;15.70;;;3.50;;
69754;SDS011;57023;52.218;5.158;2022-11-23T12:07:16;15.63;;;3.40;;
69754;SDS011;57023;52.218;5.158;2022-11-23T12:09:49;12.02;;;3.47;;
69754;SDS011;57023;52.218;5.158;2022-11-23T12:12:17;10.32;;;3.05;;
69754;SDS011;57023;52.218;5.158;2022-11-23T12:14:44;6.65;;;2.80;;
69754;SDS011;57023;52.218;5.158;2022-11-23T12:17:30;9.73;;;3.33;;
69754;SDS011;57023;52.218;5.158;2022-11-23T12:20:07;8.55;;;3.33;;
69754;SDS011;57023;52.218;5.158;2022-11-23T12:25:30;11.02;;;3.08;;
69754;SDS011;57023;52.218;5.158;2022-11-23T12:28:22;12.07;;;3.65;;
69754;SDS011;57023;52.218;5.158;2022-11-23T12:31:02;10.73;;;2.90;;
69754;SDS011;57023;52.218;5.158;2022-11-23T12:33:45;11.65;;;3.38;;
69754;SDS011;57023;52.218;5.158;2022-11-23T12:42:05;11.50;;;3.08;;
69754;SDS011;57023;52.218;5.158;2022-11-23T12:50:09;10.10;;;3.47;;
69754;SDS011;57023;52.218;5.158;2022-11-23T12:52:42;9.68;;;3.33;;
69754;SDS011;57023;52.218;5.158;2022-11-23T12:57:51;10.57;;;3.30;;
69754;SDS011;57023;52.218;5.158;2022-11-23T13:00:22;12.10;;;3.40;;
69754;SDS011;57023;52.218;5.158;2022-11-23T13:08:26;12.60;;;2.72;;
69754;SDS011;57023;52.218;5.158;2022-11-23T13:17:33;11.98;;;3.05;;
69754;SDS011;57023;52.218;5.158;2022-11-23T13:23:09;7.53;;;2.50;;
69754;SDS011;57023;52.218;5.158;2022-11-23T13:25:34;13.18;;;2.80;;
69754;SDS011;57023;52.218;5.158;2022-11-23T13:28:04;7.82;;;2.50;;
69754;SDS011;57023;52.218;5.158;2022-11-23T13:33:40;8.30;;;2.72;;
69754;SDS011;57023;52.218;5.158;2022-11-23T13:36:57;9.38;;;2.55;;
69754;SDS011;57023;52.218;5.158;2022-11-23T13:38:56;13.68;;;3.30;;
69754;SDS011;57023;52.218;5.158;2022-11-23T13:43:56;13.50;;;3.40;;
69754;SDS011;57023;52.218;5.158;2022-11-23T13:46:22;6.75;;;2.67;;
69754;SDS011;57023;52.218;5.158;2022-11-23T13:48:53;10.70;;;3.10;;
69754;SDS011;57023;52.218;5.158;2022-11-23T13:51:24;9.88;;;3.00;;
69754;SDS011;57023;52.218;5.158;2022-11-23T13:56:44;10.20;;;2.80;;
69754;SDS011;57023;52.218;5.158;2022-11-23T14:02:01;9.52;;;3.13;;
69754;SDS011;57023;52.218;5.158;2022-11-23T14:04:43;9.20;;;2.80;;
69754;SDS011;57023;52.218;5.158;2022-11-23T14:07:16;7.78;;;2.78;;
69754;SDS011;57023;52.218;5.158;2022-11-23T14:09:53;9.00;;;3.00;;
69754;SDS011;57023;52.218;5.158;2022-11-23T14:12:34;9.40;;;3.30;;
69754;SDS011;57023;52.218;5.158;2022-11-23T14:15:11;5.28;;;2.60;;
69754;SDS011;57023;52.218;5.158;2022-11-23T14:28:22;9.30;;;3.05;;
69754;SDS011;57023;52.218;5.158;2022-11-23T14:31:12;14.73;;;3.38;;
69754;SDS011;57023;52.218;5.158;2022-11-23T14:34:03;7.72;;;2.95;;
69754;SDS011;57023;52.218;5.158;2022-11-23T14:36:40;10.80;;;2.70;;
69754;SDS011;57023;52.218;5.158;2022-11-23T14:39:20;8.48;;;2.97;;
69754;SDS011;57023;52.218;5.158;2022-11-23T14:41:55;7.05;;;2.80;;
69754;SDS011;57023;52.218;5.158;2022-11-23T14:44:26;9.23;;;3.20;;
69754;SDS011;57023;52.218;5.158;2022-11-23T14:46:59;8.57;;;3.00;;
69754;SDS011;57023;52.218;5.158;2022-11-23T14:49:28;10.13;;;3.10;;
69754;SDS011;57023;52.218;5.158;2022-11-23T14:51:54;11.27;;;3.65;;
69754;SDS011;57023;52.218;5.158;2022-11-23T14:54:19;7.07;;;3.17;;
69754;SDS011;57023;52.218;5.158;2022-11-23T14:56:46;7.13;;;3.10;;
69754;SDS011;57023;52.218;5.158;2022-11-23T15:01:46;8.77;;;3.40;;
69754;SDS011;57023;52.218;5.158;2022-11-23T15:04:23;10.98;;;3.20;;
69754;SDS011;57023;52.218;5.158;2022-11-23T15:06:49;10.55;;;3.95;;
69754;SDS011;57023;52.218;5.158;2022-11-23T15:09:25;10.65;;;3.35;;
69754;SDS011;57023;52.218;5.158;2022-11-23T15:12:06;7.65;;;3.10;;
69754;SDS011;57023;52.218;5.158;2022-11-23T15:14:45;9.60;;;3.40;;
69754;SDS011;57023;52.218;5.158;2022-11-23T15:17:14;5.93;;;2.58;;
69754;SDS011;57023;52.218;5.158;2022-11-23T15:19:41;6.90;;;3.13;;
69754;SDS011;57023;52.218;5.158;2022-11-23T15:22:15;7.68;;;2.97;;
69754;SDS011;57023;52.218;5.158;2022-11-23T15:24:41;10.77;;;3.92;;
69754;SDS011;57023;52.218;5.158;2022-11-23T15:27:08;9.00;;;3.05;;
69754;SDS011;57023;52.218;5.158;2022-11-23T15:29:48;7.85;;;3.50;;
69754;SDS011;57023;52.218;5.158;2022-11-23T15:32:22;9.73;;;3.47;;
69754;SDS011;57023;52.218;5.158;2022-11-23T15:34:52;9.07;;;3.47;;
69754;SDS011;57023;52.218;5.158;2022-11-23T15:37:19;10.65;;;3.42;;
69754;SDS011;57023;52.218;5.158;2022-11-23T15:39:45;8.77;;;3.53;;
69754;SDS011;57023;52.218;5.158;2022-11-23T15:42:15;11.18;;;3.58;;
69754;SDS011;57023;52.218;5.158;2022-11-23T15:44:42;13.85;;;3.42;;
69754;SDS011;57023;52.218;5.158;2022-11-23T15:47:10;8.15;;;2.85;;
69754;SDS011;57023;52.218;5.158;2022-11-23T15:49:40;10.65;;;3.70;;
69754;SDS011;57023;52.218;5.158;2022-11-23T15:52:09;9.98;;;3.63;;
69754;SDS011;57023;52.218;5.158;2022-11-23T15:54:36;10.60;;;3.97;;
69754;SDS011;57023;52.218;5.158;2022-11-23T15:57:03;10.77;;;3.53;;
69754;SDS011;57023;52.218;5.158;2022-11-23T15:59:44;8.70;;;3.50;;
69754;SDS011;57023;52.218;5.158;2022-11-23T16:02:21;8.32;;;4.22;;
69754;SDS011;57023;52.218;5.158;2022-11-23T16:04:48;7.97;;;3.17;;